sensor_id;sensor_type;location;lat;lon;timestamp;P1;durP1;ratioP1;P2;durP2;ratioP2
20535;SDS011;10426;49.420;8.390;2022-10-12T00:00:56;4.63;;;2.17;;
20535;SDS011;10426;49.420;8.390;2022-10-12T00:03:23;5.40;;;2.20;;
20535;SDS011;10426;49.420;8.390;2022-10-12T00:05:58;5.05;;;2.33;;
20535;SDS011;10426;49.420;8.390;2022-10-12T00:08:25;2.60;;;1.90;;
20535;SDS011;10426;49.420;8.390;2022-10-12T00:10:52;4.28;;;2.30;;
20535;SDS011;10426;49.420;8.390;2022-10-12T00:13:20;4.65;;;2.05;;
20535;SDS011;10426;49.420;8.390;2022-10-12T00:15:47;2.88;;;1.80;;
20535;SDS011;10426;49.420;8.390;2022-10-12T00:18:13;5.43;;;2.20;;
20535;SDS011;10426;49.420;8.390;2022-10-12T00:20:40;2.90;;;2.28;;
20535;SDS011;10426;49.420;8.390;2022-10-12T00:23:07;4.10;;;2.08;;
20535;SDS011;10426;49.420;8.390;2022-10-12T00:25:34;4.38;;;1.98;;
20535;SDS011;10426;49.420;8.390;2022-10-12T00:28:01;5.55;;;1.83;;
20535;SDS011;10426;49.420;8.390;2022-10-12T00:30:29;4.05;;;2.13;;
20535;SDS011;10426;49.420;8.390;2022-10-12T00:32:56;5.13;;;2.10;;
20535;SDS011;10426;49.420;8.390;2022-10-12T00:35:23;3.20;;;1.90;;
20535;SDS011;10426;49.420;8.390;2022-10-12T00:37:52;3.03;;;1.98;;
20535;SDS011;10426;49.420;8.390;2022-10-12T00:40:19;5.50;;;1.87;;
20535;SDS011;10426;49.420;8.390;2022-10-12T00:42:45;4.10;;;2.00;;
20535;SDS011;10426;49.420;8.390;2022-10-12T00:45:13;4.05;;;1.80;;
20535;SDS011;10426;49.420;8.390;2022-10-12T00:47:42;2.38;;;1.73;;
20535;SDS011;10426;49.420;8.390;2022-10-12T00:50:11;4.80;;;2.00;;
20535;SDS011;10426;49.420;8.390;2022-10-12T00:52:40;4.00;;;1.70;;
20535;SDS011;10426;49.420;8.390;2022-10-12T00:55:08;3.35;;;2.08;;
20535;SDS011;10426;49.420;8.390;2022-10-12T00:57:35;4.95;;;2.00;;
20535;SDS011;10426;49.420;8.390;2022-10-12T01:00:03;3.28;;;1.83;;
20535;SDS011;10426;49.420;8.390;2022-10-12T01:02:30;2.70;;;1.70;;
20535;SDS011;10426;49.420;8.390;2022-10-12T01:04:59;2.95;;;1.90;;
20535;SDS011;10426;49.420;8.390;2022-10-12T01:07:26;4.10;;;1.95;;
20535;SDS011;10426;49.420;8.390;2022-10-12T01:09:52;2.92;;;1.92;;
20535;SDS011;10426;49.420;8.390;2022-10-12T01:12:19;5.30;;;2.10;;
20535;SDS011;10426;49.420;8.390;2022-10-12T01:14:46;5.18;;;2.10;;
20535;SDS011;10426;49.420;8.390;2022-10-12T01:17:16;2.33;;;1.73;;
20535;SDS011;10426;49.420;8.390;2022-10-12T01:22:29;5.32;;;2.00;;
20535;SDS011;10426;49.420;8.390;2022-10-12T01:24:59;2.90;;;1.83;;
20535;SDS011;10426;49.420;8.390;2022-10-12T01:27:35;4.82;;;2.05;;
20535;SDS011;10426;49.420;8.390;2022-10-12T01:30:12;3.42;;;2.17;;
20535;SDS011;10426;49.420;8.390;2022-10-12T01:33:01;3.47;;;1.80;;
20535;SDS011;10426;49.420;8.390;2022-10-12T01:35:30;3.00;;;1.77;;
20535;SDS011;10426;49.420;8.390;2022-10-12T01:38:01;3.38;;;1.80;;
20535;SDS011;10426;49.420;8.390;2022-10-12T01:40:32;3.60;;;1.88;;
20535;SDS011;10426;49.420;8.390;2022-10-12T01:43:00;3.33;;;1.90;;
20535;SDS011;10426;49.420;8.390;2022-10-12T01:45:29;3.33;;;1.80;;
20535;SDS011;10426;49.420;8.390;2022-10-12T01:47:55;2.58;;;1.90;;
20535;SDS011;10426;49.420;8.390;2022-10-12T01:50:23;3.08;;;1.73;;
20535;SDS011;10426;49.420;8.390;2022-10-12T01:52:54;3.40;;;1.85;;
20535;SDS011;10426;49.420;8.390;2022-10-12T01:55:25;1.92;;;1.55;;
20535;SDS011;10426;49.420;8.390;2022-10-12T01:57:59;3.83;;;2.03;;
20535;SDS011;10426;49.420;8.390;2022-10-12T02:00:30;4.72;;;2.20;;
20535;SDS011;10426;49.420;8.390;2022-10-12T02:03:00;3.05;;;1.90;;
20535;SDS011;10426;49.420;8.390;2022-10-12T02:05:32;4.82;;;1.98;;
20535;SDS011;10426;49.420;8.390;2022-10-12T02:08:02;4.50;;;1.90;;
20535;SDS011;10426;49.420;8.390;2022-10-12T02:10:29;3.27;;;2.13;;
20535;SDS011;10426;49.420;8.390;2022-10-12T02:12:59;2.75;;;1.83;;
20535;SDS011;10426;49.420;8.390;2022-10-12T02:15:26;3.85;;;2.10;;
20535;SDS011;10426;49.420;8.390;2022-10-12T02:17:56;4.47;;;1.92;;
20535;SDS011;10426;49.420;8.390;2022-10-12T02:20:23;3.67;;;2.08;;
20535;SDS011;10426;49.420;8.390;2022-10-12T02:22:50;3.60;;;1.80;;
20535;SDS011;10426;49.420;8.390;2022-10-12T02:25:18;2.10;;;1.90;;
20535;SDS011;10426;49.420;8.390;2022-10-12T02:27:46;5.10;;;2.08;;
20535;SDS011;10426;49.420;8.390;2022-10-12T02:30:15;7.00;;;2.22;;
20535;SDS011;10426;49.420;8.390;2022-10-12T02:32:44;5.13;;;2.03;;
20535;SDS011;10426;49.420;8.390;2022-10-12T02:35:17;3.97;;;2.05;;
20535;SDS011;10426;49.420;8.390;2022-10-12T02:37:47;4.18;;;2.00;;
20535;SDS011;10426;49.420;8.390;2022-10-12T02:40:17;5.10;;;2.00;;
20535;SDS011;10426;49.420;8.390;2022-10-12T02:42:45;3.60;;;1.90;;
20535;SDS011;10426;49.420;8.390;2022-10-12T02:45:13;5.25;;;1.90;;
20535;SDS011;10426;49.420;8.390;2022-10-12T02:47:41;2.63;;;1.73;;
20535;SDS011;10426;49.420;8.390;2022-10-12T02:50:09;4.78;;;1.90;;
20535;SDS011;10426;49.420;8.390;2022-10-12T02:52:38;2.65;;;1.88;;
20535;SDS011;10426;49.420;8.390;2022-10-12T02:55:05;3.55;;;1.95;;
20535;SDS011;10426;49.420;8.390;2022-10-12T02:57:32;5.50;;;1.90;;
20535;SDS011;10426;49.420;8.390;2022-10-12T02:59:58;3.50;;;1.98;;
20535;SDS011;10426;49.420;8.390;2022-10-12T03:02:25;4.15;;;1.92;;
20535;SDS011;10426;49.420;8.390;2022-10-12T03:04:52;4.30;;;2.00;;
20535;SDS011;10426;49.420;8.390;2022-10-12T03:07:19;3.25;;;1.77;;
20535;SDS011;10426;49.420;8.390;2022-10-12T03:09:47;3.03;;;2.03;;
20535;SDS011;10426;49.420;8.390;2022-10-12T03:12:13;3.75;;;2.08;;
20535;SDS011;10426;49.420;8.390;2022-10-12T03:14:40;2.88;;;1.92;;
20535;SDS011;10426;49.420;8.390;2022-10-12T03:17:07;1.95;;;1.75;;
20535;SDS011;10426;49.420;8.390;2022-10-12T03:19:33;3.73;;;1.97;;
20535;SDS011;10426;49.420;8.390;2022-10-12T03:22:02;3.47;;;1.90;;
20535;SDS011;10426;49.420;8.390;2022-10-12T03:24:29;4.63;;;1.77;;
20535;SDS011;10426;49.420;8.390;2022-10-12T03:26:57;3.97;;;2.05;;
20535;SDS011;10426;49.420;8.390;2022-10-12T03:29:24;3.10;;;2.00;;
20535;SDS011;10426;49.420;8.390;2022-10-12T03:31:50;4.40;;;2.03;;
20535;SDS011;10426;49.420;8.390;2022-10-12T03:34:17;3.83;;;1.70;;
20535;SDS011;10426;49.420;8.390;2022-10-12T03:36:44;3.58;;;2.15;;
20535;SDS011;10426;49.420;8.390;2022-10-12T03:39:10;5.25;;;2.20;;
20535;SDS011;10426;49.420;8.390;2022-10-12T03:41:37;4.95;;;2.13;;
20535;SDS011;10426;49.420;8.390;2022-10-12T03:44:05;4.32;;;2.15;;
20535;SDS011;10426;49.420;8.390;2022-10-12T03:46:32;3.93;;;2.27;;
20535;SDS011;10426;49.420;8.390;2022-10-12T03:48:58;3.72;;;1.80;;
20535;SDS011;10426;49.420;8.390;2022-10-12T03:51:25;3.67;;;1.80;;
20535;SDS011;10426;49.420;8.390;2022-10-12T03:53:52;3.50;;;2.00;;
20535;SDS011;10426;49.420;8.390;2022-10-12T03:56:18;3.15;;;2.00;;
20535;SDS011;10426;49.420;8.390;2022-10-12T03:58:45;3.95;;;1.90;;
20535;SDS011;10426;49.420;8.390;2022-10-12T04:01:13;3.92;;;2.25;;
20535;SDS011;10426;49.420;8.390;2022-10-12T04:03:39;2.70;;;2.00;;
20535;SDS011;10426;49.420;8.390;2022-10-12T04:06:06;3.80;;;2.27;;
20535;SDS011;10426;49.420;8.390;2022-10-12T04:08:33;4.88;;;2.40;;
20535;SDS011;10426;49.420;8.390;2022-10-12T04:10:59;4.80;;;2.03;;
20535;SDS011;10426;49.420;8.390;2022-10-12T04:13:26;2.23;;;2.00;;
20535;SDS011;10426;49.420;8.390;2022-10-12T04:15:53;2.80;;;2.00;;
20535;SDS011;10426;49.420;8.390;2022-10-12T04:18:21;3.30;;;2.10;;
20535;SDS011;10426;49.420;8.390;2022-10-12T04:20:47;3.08;;;2.20;;
20535;SDS011;10426;49.420;8.390;2022-10-12T04:23:14;3.05;;;2.20;;
20535;SDS011;10426;49.420;8.390;2022-10-12T04:25:41;3.30;;;2.22;;
20535;SDS011;10426;49.420;8.390;2022-10-12T04:28:08;4.27;;;2.23;;
20535;SDS011;10426;49.420;8.390;2022-10-12T04:30:34;4.60;;;2.10;;
20535;SDS011;10426;49.420;8.390;2022-10-12T04:33:01;3.65;;;2.10;;
20535;SDS011;10426;49.420;8.390;2022-10-12T04:35:29;6.47;;;2.30;;
20535;SDS011;10426;49.420;8.390;2022-10-12T04:37:56;5.20;;;2.40;;
20535;SDS011;10426;49.420;8.390;2022-10-12T04:40:23;4.70;;;2.08;;
20535;SDS011;10426;49.420;8.390;2022-10-12T04:42:50;5.18;;;2.63;;
20535;SDS011;10426;49.420;8.390;2022-10-12T04:45:16;2.47;;;2.17;;
20535;SDS011;10426;49.420;8.390;2022-10-12T04:47:43;3.20;;;2.17;;
20535;SDS011;10426;49.420;8.390;2022-10-12T04:50:09;4.07;;;2.30;;
20535;SDS011;10426;49.420;8.390;2022-10-12T04:52:38;6.83;;;2.63;;
20535;SDS011;10426;49.420;8.390;2022-10-12T04:55:05;3.17;;;2.70;;
20535;SDS011;10426;49.420;8.390;2022-10-12T04:57:31;4.90;;;3.00;;
20535;SDS011;10426;49.420;8.390;2022-10-12T04:59:58;4.82;;;3.00;;
20535;SDS011;10426;49.420;8.390;2022-10-12T05:02:25;4.63;;;2.63;;
20535;SDS011;10426;49.420;8.390;2022-10-12T05:04:51;3.28;;;2.53;;
20535;SDS011;10426;49.420;8.390;2022-10-12T05:07:18;4.38;;;2.20;;
20535;SDS011;10426;49.420;8.390;2022-10-12T05:09:46;4.63;;;2.45;;
20535;SDS011;10426;49.420;8.390;2022-10-12T05:12:13;5.35;;;2.30;;
20535;SDS011;10426;49.420;8.390;2022-10-12T05:14:40;3.70;;;2.33;;
20535;SDS011;10426;49.420;8.390;2022-10-12T05:17:08;7.25;;;2.45;;
20535;SDS011;10426;49.420;8.390;2022-10-12T05:19:35;4.70;;;2.35;;
20535;SDS011;10426;49.420;8.390;2022-10-12T05:22:02;4.22;;;2.20;;
20535;SDS011;10426;49.420;8.390;2022-10-12T05:24:28;3.37;;;2.10;;
20535;SDS011;10426;49.420;8.390;2022-10-12T05:26:56;2.17;;;1.98;;
20535;SDS011;10426;49.420;8.390;2022-10-12T05:29:23;3.67;;;2.35;;
20535;SDS011;10426;49.420;8.390;2022-10-12T05:31:50;2.40;;;2.17;;
20535;SDS011;10426;49.420;8.390;2022-10-12T05:34:16;4.18;;;2.20;;
20535;SDS011;10426;49.420;8.390;2022-10-12T05:36:43;5.80;;;2.30;;
20535;SDS011;10426;49.420;8.390;2022-10-12T05:39:10;4.72;;;1.98;;
20535;SDS011;10426;49.420;8.390;2022-10-12T05:41:36;3.33;;;2.08;;
20535;SDS011;10426;49.420;8.390;2022-10-12T05:44:05;3.05;;;2.15;;
20535;SDS011;10426;49.420;8.390;2022-10-12T05:46:32;6.07;;;2.40;;
20535;SDS011;10426;49.420;8.390;2022-10-12T05:48:58;2.40;;;1.80;;
20535;SDS011;10426;49.420;8.390;2022-10-12T05:51:25;4.68;;;2.25;;
20535;SDS011;10426;49.420;8.390;2022-10-12T05:53:52;4.28;;;2.13;;
20535;SDS011;10426;49.420;8.390;2022-10-12T05:56:18;4.60;;;2.30;;
20535;SDS011;10426;49.420;8.390;2022-10-12T05:58:45;3.85;;;2.08;;
20535;SDS011;10426;49.420;8.390;2022-10-12T06:01:13;4.55;;;2.00;;
20535;SDS011;10426;49.420;8.390;2022-10-12T06:03:40;4.97;;;2.13;;
20535;SDS011;10426;49.420;8.390;2022-10-12T06:06:07;3.95;;;2.10;;
20535;SDS011;10426;49.420;8.390;2022-10-12T06:08:33;4.20;;;2.13;;
20535;SDS011;10426;49.420;8.390;2022-10-12T06:11:00;4.33;;;2.20;;
20535;SDS011;10426;49.420;8.390;2022-10-12T06:13:27;3.33;;;2.22;;
20535;SDS011;10426;49.420;8.390;2022-10-12T06:15:54;3.10;;;1.88;;
20535;SDS011;10426;49.420;8.390;2022-10-12T06:18:22;5.45;;;2.38;;
20535;SDS011;10426;49.420;8.390;2022-10-12T06:20:49;2.08;;;1.85;;
20535;SDS011;10426;49.420;8.390;2022-10-12T06:23:17;3.30;;;2.10;;
20535;SDS011;10426;49.420;8.390;2022-10-12T06:25:44;4.75;;;2.10;;
20535;SDS011;10426;49.420;8.390;2022-10-12T06:28:11;3.95;;;2.10;;
20535;SDS011;10426;49.420;8.390;2022-10-12T06:30:37;5.45;;;2.47;;
20535;SDS011;10426;49.420;8.390;2022-10-12T06:33:04;3.60;;;2.30;;
20535;SDS011;10426;49.420;8.390;2022-10-12T06:35:32;5.03;;;2.13;;
20535;SDS011;10426;49.420;8.390;2022-10-12T06:37:59;6.38;;;2.10;;
20535;SDS011;10426;49.420;8.390;2022-10-12T06:40:26;3.63;;;2.30;;
20535;SDS011;10426;49.420;8.390;2022-10-12T06:42:52;2.55;;;1.95;;
20535;SDS011;10426;49.420;8.390;2022-10-12T06:45:19;3.15;;;2.03;;
20535;SDS011;10426;49.420;8.390;2022-10-12T06:47:46;6.38;;;2.25;;
20535;SDS011;10426;49.420;8.390;2022-10-12T06:50:13;3.10;;;2.10;;
20535;SDS011;10426;49.420;8.390;2022-10-12T06:52:41;5.80;;;2.00;;
20535;SDS011;10426;49.420;8.390;2022-10-12T06:55:08;4.60;;;2.25;;
20535;SDS011;10426;49.420;8.390;2022-10-12T06:57:35;4.75;;;2.28;;
20535;SDS011;10426;49.420;8.390;2022-10-12T07:00:02;5.75;;;2.42;;
20535;SDS011;10426;49.420;8.390;2022-10-12T07:02:29;3.60;;;2.13;;
20535;SDS011;10426;49.420;8.390;2022-10-12T07:04:56;4.50;;;2.20;;
20535;SDS011;10426;49.420;8.390;2022-10-12T07:07:23;3.93;;;2.23;;
20535;SDS011;10426;49.420;8.390;2022-10-12T07:09:51;5.18;;;2.25;;
20535;SDS011;10426;49.420;8.390;2022-10-12T07:12:17;3.92;;;2.15;;
20535;SDS011;10426;49.420;8.390;2022-10-12T07:14:44;4.35;;;2.38;;
20535;SDS011;10426;49.420;8.390;2022-10-12T07:17:11;6.13;;;2.53;;
20535;SDS011;10426;49.420;8.390;2022-10-12T07:19:38;4.75;;;2.33;;
20535;SDS011;10426;49.420;8.390;2022-10-12T07:22:05;3.70;;;2.40;;
20535;SDS011;10426;49.420;8.390;2022-10-12T07:24:31;7.38;;;2.70;;
20535;SDS011;10426;49.420;8.390;2022-10-12T07:27:03;5.22;;;2.30;;
20535;SDS011;10426;49.420;8.390;2022-10-12T07:29:30;3.58;;;2.45;;
20535;SDS011;10426;49.420;8.390;2022-10-12T07:31:57;4.35;;;2.63;;
20535;SDS011;10426;49.420;8.390;2022-10-12T07:34:23;4.97;;;2.83;;
20535;SDS011;10426;49.420;8.390;2022-10-12T07:36:50;3.65;;;2.53;;
20535;SDS011;10426;49.420;8.390;2022-10-12T07:39:17;2.72;;;2.35;;
20535;SDS011;10426;49.420;8.390;2022-10-12T07:41:44;4.60;;;2.30;;
20535;SDS011;10426;49.420;8.390;2022-10-12T07:44:12;4.80;;;2.38;;
20535;SDS011;10426;49.420;8.390;2022-10-12T07:46:38;5.60;;;2.40;;
20535;SDS011;10426;49.420;8.390;2022-10-12T07:49:05;3.97;;;2.50;;
20535;SDS011;10426;49.420;8.390;2022-10-12T07:51:33;4.95;;;2.25;;
20535;SDS011;10426;49.420;8.390;2022-10-12T07:54:00;4.68;;;2.42;;
20535;SDS011;10426;49.420;8.390;2022-10-12T07:56:26;5.50;;;2.40;;
20535;SDS011;10426;49.420;8.390;2022-10-12T07:58:54;4.22;;;2.25;;
20535;SDS011;10426;49.420;8.390;2022-10-12T08:01:23;4.93;;;2.60;;
20535;SDS011;10426;49.420;8.390;2022-10-12T08:03:49;3.65;;;2.40;;
20535;SDS011;10426;49.420;8.390;2022-10-12T08:06:17;4.07;;;2.30;;
20535;SDS011;10426;49.420;8.390;2022-10-12T08:08:44;4.95;;;2.20;;
20535;SDS011;10426;49.420;8.390;2022-10-12T08:11:11;3.45;;;2.50;;
20535;SDS011;10426;49.420;8.390;2022-10-12T08:13:39;5.75;;;2.40;;
20535;SDS011;10426;49.420;8.390;2022-10-12T08:16:07;4.78;;;2.40;;
20535;SDS011;10426;49.420;8.390;2022-10-12T08:18:37;4.70;;;2.60;;
20535;SDS011;10426;49.420;8.390;2022-10-12T08:21:04;3.88;;;2.20;;
20535;SDS011;10426;49.420;8.390;2022-10-12T08:23:30;3.88;;;2.40;;
20535;SDS011;10426;49.420;8.390;2022-10-12T08:25:57;4.15;;;2.50;;
20535;SDS011;10426;49.420;8.390;2022-10-12T08:28:24;4.75;;;2.60;;
20535;SDS011;10426;49.420;8.390;2022-10-12T08:30:51;4.60;;;2.80;;
20535;SDS011;10426;49.420;8.390;2022-10-12T08:33:17;6.78;;;2.80;;
20535;SDS011;10426;49.420;8.390;2022-10-12T08:35:45;3.63;;;2.60;;
20535;SDS011;10426;49.420;8.390;2022-10-12T08:38:13;4.28;;;2.95;;
20535;SDS011;10426;49.420;8.390;2022-10-12T08:40:41;3.58;;;2.50;;
20535;SDS011;10426;49.420;8.390;2022-10-12T08:43:12;6.65;;;2.88;;
20535;SDS011;10426;49.420;8.390;2022-10-12T08:45:42;5.85;;;2.78;;
20535;SDS011;10426;49.420;8.390;2022-10-12T08:48:13;3.83;;;2.70;;
20535;SDS011;10426;49.420;8.390;2022-10-12T08:50:45;5.18;;;2.63;;
20535;SDS011;10426;49.420;8.390;2022-10-12T08:53:16;5.38;;;2.60;;
20535;SDS011;10426;49.420;8.390;2022-10-12T08:55:45;5.43;;;2.67;;
20535;SDS011;10426;49.420;8.390;2022-10-12T08:58:14;7.45;;;2.40;;
20535;SDS011;10426;49.420;8.390;2022-10-12T09:00:40;4.90;;;3.10;;
20535;SDS011;10426;49.420;8.390;2022-10-12T09:03:11;3.72;;;2.63;;
20535;SDS011;10426;49.420;8.390;2022-10-12T09:05:39;3.40;;;2.60;;
20535;SDS011;10426;49.420;8.390;2022-10-12T09:08:09;4.53;;;2.70;;
20535;SDS011;10426;49.420;8.390;2022-10-12T09:10:43;6.65;;;2.53;;
20535;SDS011;10426;49.420;8.390;2022-10-12T09:13:13;5.72;;;2.80;;
20535;SDS011;10426;49.420;8.390;2022-10-12T09:15:44;6.13;;;2.63;;
20535;SDS011;10426;49.420;8.390;2022-10-12T09:18:14;3.25;;;2.60;;
20535;SDS011;10426;49.420;8.390;2022-10-12T09:20:44;4.00;;;2.75;;
20535;SDS011;10426;49.420;8.390;2022-10-12T09:23:16;3.75;;;2.85;;
20535;SDS011;10426;49.420;8.390;2022-10-12T09:25:47;5.75;;;2.75;;
20535;SDS011;10426;49.420;8.390;2022-10-12T09:28:16;3.88;;;2.50;;
20535;SDS011;10426;49.420;8.390;2022-10-12T09:30:49;5.43;;;2.65;;
20535;SDS011;10426;49.420;8.390;2022-10-12T09:33:20;6.00;;;2.85;;
20535;SDS011;10426;49.420;8.390;2022-10-12T09:35:48;5.55;;;2.47;;
20535;SDS011;10426;49.420;8.390;2022-10-12T09:38:15;5.45;;;2.63;;
20535;SDS011;10426;49.420;8.390;2022-10-12T09:40:43;5.57;;;2.55;;
20535;SDS011;10426;49.420;8.390;2022-10-12T09:43:11;4.70;;;2.53;;
20535;SDS011;10426;49.420;8.390;2022-10-12T09:45:39;4.50;;;2.80;;
20535;SDS011;10426;49.420;8.390;2022-10-12T09:48:13;6.70;;;2.83;;
20535;SDS011;10426;49.420;8.390;2022-10-12T09:50:42;3.50;;;2.88;;
20535;SDS011;10426;49.420;8.390;2022-10-12T09:53:13;4.60;;;2.97;;
20535;SDS011;10426;49.420;8.390;2022-10-12T09:55:40;5.93;;;2.83;;
20535;SDS011;10426;49.420;8.390;2022-10-12T09:58:18;4.55;;;2.90;;
20535;SDS011;10426;49.420;8.390;2022-10-12T10:00:46;4.68;;;2.70;;
20535;SDS011;10426;49.420;8.390;2022-10-12T10:03:34;6.03;;;3.17;;
20535;SDS011;10426;49.420;8.390;2022-10-12T10:06:02;5.15;;;3.03;;
20535;SDS011;10426;49.420;8.390;2022-10-12T10:08:30;8.15;;;3.00;;
20535;SDS011;10426;49.420;8.390;2022-10-12T10:11:04;4.28;;;3.10;;
20535;SDS011;10426;49.420;8.390;2022-10-12T10:13:31;3.47;;;2.60;;
20535;SDS011;10426;49.420;8.390;2022-10-12T10:16:02;5.35;;;3.08;;
20535;SDS011;10426;49.420;8.390;2022-10-12T10:18:31;5.17;;;3.10;;
20535;SDS011;10426;49.420;8.390;2022-10-12T10:21:01;5.77;;;3.10;;
20535;SDS011;10426;49.420;8.390;2022-10-12T10:23:28;5.10;;;3.27;;
20535;SDS011;10426;49.420;8.390;2022-10-12T10:25:57;4.15;;;3.33;;
20535;SDS011;10426;49.420;8.390;2022-10-12T10:28:27;4.00;;;3.20;;
20535;SDS011;10426;49.420;8.390;2022-10-12T10:30:54;4.50;;;3.50;;
20535;SDS011;10426;49.420;8.390;2022-10-12T10:33:22;4.47;;;3.30;;
20535;SDS011;10426;49.420;8.390;2022-10-12T10:35:59;6.38;;;3.38;;
20535;SDS011;10426;49.420;8.390;2022-10-12T10:38:27;8.10;;;4.07;;
20535;SDS011;10426;49.420;8.390;2022-10-12T10:40:55;6.13;;;3.90;;
20535;SDS011;10426;49.420;8.390;2022-10-12T10:43:24;5.88;;;3.83;;
20535;SDS011;10426;49.420;8.390;2022-10-12T10:45:52;7.22;;;4.15;;
20535;SDS011;10426;49.420;8.390;2022-10-12T10:48:20;6.70;;;3.97;;
20535;SDS011;10426;49.420;8.390;2022-10-12T10:50:52;6.57;;;4.10;;
20535;SDS011;10426;49.420;8.390;2022-10-12T10:53:21;5.95;;;3.90;;
20535;SDS011;10426;49.420;8.390;2022-10-12T10:55:50;8.13;;;3.83;;
20535;SDS011;10426;49.420;8.390;2022-10-12T10:58:19;5.60;;;3.78;;
20535;SDS011;10426;49.420;8.390;2022-10-12T11:00:47;5.05;;;3.83;;
20535;SDS011;10426;49.420;8.390;2022-10-12T11:03:16;7.87;;;4.20;;
20535;SDS011;10426;49.420;8.390;2022-10-12T11:05:47;6.38;;;4.22;;
20535;SDS011;10426;49.420;8.390;2022-10-12T11:08:16;5.43;;;4.30;;
20535;SDS011;10426;49.420;8.390;2022-10-12T11:10:46;4.97;;;4.43;;
20535;SDS011;10426;49.420;8.390;2022-10-12T11:13:16;4.80;;;4.30;;
20535;SDS011;10426;49.420;8.390;2022-10-12T11:15:45;6.53;;;4.28;;
20535;SDS011;10426;49.420;8.390;2022-10-12T11:18:14;8.80;;;4.55;;
20535;SDS011;10426;49.420;8.390;2022-10-12T11:20:44;7.35;;;4.78;;
20535;SDS011;10426;49.420;8.390;2022-10-12T11:23:13;7.35;;;4.45;;
20535;SDS011;10426;49.420;8.390;2022-10-12T11:25:43;8.30;;;4.78;;
20535;SDS011;10426;49.420;8.390;2022-10-12T11:28:13;7.90;;;5.20;;
20535;SDS011;10426;49.420;8.390;2022-10-12T11:30:43;8.20;;;4.70;;
20535;SDS011;10426;49.420;8.390;2022-10-12T11:33:11;7.47;;;4.97;;
20535;SDS011;10426;49.420;8.390;2022-10-12T11:35:40;6.32;;;5.10;;
20535;SDS011;10426;49.420;8.390;2022-10-12T11:38:11;6.82;;;5.30;;
20535;SDS011;10426;49.420;8.390;2022-10-12T11:40:41;7.40;;;5.07;;
20535;SDS011;10426;49.420;8.390;2022-10-12T11:43:11;5.80;;;5.05;;
20535;SDS011;10426;49.420;8.390;2022-10-12T11:45:39;6.05;;;5.32;;
20535;SDS011;10426;49.420;8.390;2022-10-12T11:48:10;7.43;;;5.15;;
20535;SDS011;10426;49.420;8.390;2022-10-12T11:50:39;5.97;;;5.07;;
20535;SDS011;10426;49.420;8.390;2022-10-12T11:53:11;10.73;;;5.50;;
20535;SDS011;10426;49.420;8.390;2022-10-12T11:55:43;9.10;;;5.00;;
20535;SDS011;10426;49.420;8.390;2022-10-12T11:58:12;9.45;;;5.57;;
20535;SDS011;10426;49.420;8.390;2022-10-12T12:00:43;10.60;;;6.18;;
20535;SDS011;10426;49.420;8.390;2022-10-12T12:03:15;8.13;;;5.30;;
20535;SDS011;10426;49.420;8.390;2022-10-12T12:05:43;7.83;;;5.53;;
20535;SDS011;10426;49.420;8.390;2022-10-12T12:08:19;9.00;;;5.22;;
20535;SDS011;10426;49.420;8.390;2022-10-12T12:13:23;8.40;;;6.00;;
20535;SDS011;10426;49.420;8.390;2022-10-12T12:21:19;9.50;;;5.85;;
20535;SDS011;10426;49.420;8.390;2022-10-12T12:23:50;6.43;;;4.95;;
20535;SDS011;10426;49.420;8.390;2022-10-12T12:26:17;7.70;;;4.70;;
20535;SDS011;10426;49.420;8.390;2022-10-12T12:28:45;5.88;;;5.00;;
20535;SDS011;10426;49.420;8.390;2022-10-12T12:31:13;9.68;;;5.40;;
20535;SDS011;10426;49.420;8.390;2022-10-12T12:33:40;7.80;;;5.22;;
20535;SDS011;10426;49.420;8.390;2022-10-12T12:36:08;7.40;;;4.70;;
20535;SDS011;10426;49.420;8.390;2022-10-12T12:38:38;8.57;;;5.20;;
20535;SDS011;10426;49.420;8.390;2022-10-12T12:41:07;10.82;;;4.97;;
20535;SDS011;10426;49.420;8.390;2022-10-12T12:43:49;8.35;;;4.90;;
20535;SDS011;10426;49.420;8.390;2022-10-12T12:46:16;9.50;;;5.20;;
20535;SDS011;10426;49.420;8.390;2022-10-12T12:48:58;6.95;;;5.22;;
20535;SDS011;10426;49.420;8.390;2022-10-12T12:51:31;7.03;;;4.80;;
20535;SDS011;10426;49.420;8.390;2022-10-12T12:54:01;8.05;;;5.03;;
20535;SDS011;10426;49.420;8.390;2022-10-12T12:56:30;7.87;;;4.83;;
20535;SDS011;10426;49.420;8.390;2022-10-12T12:59:04;7.53;;;5.20;;
20535;SDS011;10426;49.420;8.390;2022-10-12T13:01:43;6.88;;;5.13;;
20535;SDS011;10426;49.420;8.390;2022-10-12T13:09:53;5.68;;;4.50;;
20535;SDS011;10426;49.420;8.390;2022-10-12T13:12:28;6.57;;;4.83;;
20535;SDS011;10426;49.420;8.390;2022-10-12T13:15:10;6.40;;;4.43;;
20535;SDS011;10426;49.420;8.390;2022-10-12T13:17:53;6.20;;;4.70;;
20535;SDS011;10426;49.420;8.390;2022-10-12T13:20:24;7.03;;;5.47;;
20535;SDS011;10426;49.420;8.390;2022-10-12T13:22:52;6.05;;;4.40;;
20535;SDS011;10426;49.420;8.390;2022-10-12T13:25:23;7.45;;;4.78;;
20535;SDS011;10426;49.420;8.390;2022-10-12T13:27:52;7.57;;;5.20;;
20535;SDS011;10426;49.420;8.390;2022-10-12T13:30:21;7.90;;;5.28;;
20535;SDS011;10426;49.420;8.390;2022-10-12T13:32:50;10.07;;;4.80;;
20535;SDS011;10426;49.420;8.390;2022-10-12T13:35:21;8.30;;;4.85;;
20535;SDS011;10426;49.420;8.390;2022-10-12T13:37:58;7.53;;;4.70;;
20535;SDS011;10426;49.420;8.390;2022-10-12T13:40:27;6.80;;;4.47;;
20535;SDS011;10426;49.420;8.390;2022-10-12T13:42:54;7.20;;;4.60;;
20535;SDS011;10426;49.420;8.390;2022-10-12T13:45:20;4.57;;;4.15;;
20535;SDS011;10426;49.420;8.390;2022-10-12T13:47:47;6.32;;;4.57;;
20535;SDS011;10426;49.420;8.390;2022-10-12T13:50:15;5.13;;;4.40;;
20535;SDS011;10426;49.420;8.390;2022-10-12T13:52:49;6.53;;;4.63;;
20535;SDS011;10426;49.420;8.390;2022-10-12T13:55:17;5.68;;;4.28;;
20535;SDS011;10426;49.420;8.390;2022-10-12T13:57:45;9.65;;;4.60;;
20535;SDS011;10426;49.420;8.390;2022-10-12T14:00:17;7.20;;;4.70;;
20535;SDS011;10426;49.420;8.390;2022-10-12T14:02:52;7.13;;;4.47;;
20535;SDS011;10426;49.420;8.390;2022-10-12T14:05:20;9.13;;;4.35;;
20535;SDS011;10426;49.420;8.390;2022-10-12T14:07:47;6.22;;;4.40;;
20535;SDS011;10426;49.420;8.390;2022-10-12T14:10:15;8.90;;;4.38;;
20535;SDS011;10426;49.420;8.390;2022-10-12T14:12:44;6.20;;;4.07;;
20535;SDS011;10426;49.420;8.390;2022-10-12T14:15:11;6.15;;;4.45;;
20535;SDS011;10426;49.420;8.390;2022-10-12T14:17:40;5.05;;;3.80;;
20535;SDS011;10426;49.420;8.390;2022-10-12T14:20:15;9.53;;;4.37;;
20535;SDS011;10426;49.420;8.390;2022-10-12T14:22:44;7.18;;;4.43;;
20535;SDS011;10426;49.420;8.390;2022-10-12T14:25:13;6.47;;;4.30;;
20535;SDS011;10426;49.420;8.390;2022-10-12T14:27:40;7.00;;;4.43;;
20535;SDS011;10426;49.420;8.390;2022-10-12T14:30:16;4.93;;;4.13;;
20535;SDS011;10426;49.420;8.390;2022-10-12T14:32:43;6.60;;;4.70;;
20535;SDS011;10426;49.420;8.390;2022-10-12T14:35:12;6.05;;;4.35;;
20535;SDS011;10426;49.420;8.390;2022-10-12T14:37:39;7.70;;;4.40;;
20535;SDS011;10426;49.420;8.390;2022-10-12T14:43:06;4.38;;;3.97;;
20535;SDS011;10426;49.420;8.390;2022-10-12T14:45:46;5.47;;;4.20;;
20535;SDS011;10426;49.420;8.390;2022-10-12T14:48:15;5.15;;;4.22;;
20535;SDS011;10426;49.420;8.390;2022-10-12T14:50:42;5.13;;;4.30;;
20535;SDS011;10426;49.420;8.390;2022-10-12T14:53:10;6.72;;;4.25;;
20535;SDS011;10426;49.420;8.390;2022-10-12T14:55:37;5.27;;;3.67;;
20535;SDS011;10426;49.420;8.390;2022-10-12T14:58:03;5.40;;;4.30;;
20535;SDS011;10426;49.420;8.390;2022-10-12T15:00:33;7.15;;;4.00;;
20535;SDS011;10426;49.420;8.390;2022-10-12T15:03:01;6.60;;;4.00;;
20535;SDS011;10426;49.420;8.390;2022-10-12T15:05:28;5.85;;;3.80;;
20535;SDS011;10426;49.420;8.390;2022-10-12T15:07:57;5.82;;;4.45;;
20535;SDS011;10426;49.420;8.390;2022-10-12T15:10:24;7.53;;;3.92;;
20535;SDS011;10426;49.420;8.390;2022-10-12T15:12:51;6.93;;;4.35;;
20535;SDS011;10426;49.420;8.390;2022-10-12T15:15:31;8.15;;;3.92;;